Florida, New York
Current Conditions -  °F | °C
As of 10:54 PM on Tuesday 27 Jan 2015 (Local Time) from KMGJ Reporting Station
Clear Clear  
Wind Chill:   Ceiling: Unl
Heat Index: 13°   Visibility: 10mi
Dew Point:   Wind: 6mph
Humidity: 74%   Direction: 30°NNE
Pressure: 29.82"   Gusts: NA
Location:  41.33°N, 74.36°W
Report Text: KMGJ 280354Z AUTO 03005KT 10SM CLR M11/M14 A2982 RMK AO2 SLP105 T11061144 TSNO
Loading
Personal Weather Stations






























Interactive Weather Map New forecast layout! Learn more

10-Day Weather Forecast

Advertisements
Track Severe Weather on mobile